VGEG/CGP METAR and TAF weather

Enter ICAO airport designator
Station Type Date Time Source
VGEG METAR 2021/07/27 15:00 UTC NOAA

VGEG 271500Z 24012KT 3500 RA SCT012 FEW028CB OVC090 27/26 Q0996 NOSIG


Station Type Date Time Source
VGEG Decoded METAR 2021/07/27 15:00 UTC NOAA

Chittagong Patenga , Bangladesh (VGEG) 22-16N 091-49E 6M
Jul 27, 2021 - 11:00 AM EDT / 2021.07.27 1500 UTC
Wind: from the WSW (240 degrees) at 14 MPH (12 KT):0
Visibility: 2 mile(s):0
Sky conditions: overcast
Weather: rain; Cumulonimbus clouds observed
Temperature: 80 F (27 C)
Dew Point: 78 F (26 C)
Relative Humidity: 94%
Pressure (altimeter): 29.41 in. Hg (0996 hPa)
ob: VGEG 271500Z 24012KT 3500 RA SCT012 FEW028CB OVC090 27/26 Q0996 NOSIG
cycle: 15

Station Type Date Time Source
VGEG TAF 2021/07/27 18:00 UTC NOAA

TAF VGEG 271700Z 2718/2824 19008KT 3500 SCT014 BKN100
TEMPO 2800/2816 19015KT 1500 RA/TSRA BKN008 FEW025CB OVC090
BECMG 2817/2819 17005KT 3500 SCT015 BKN100

Example: see airport list